createdAt,value
2023-05-15T00:00:44.639Z,33.44
2023-05-15T00:03:09.673Z,33.49
2023-05-15T00:05:18.894Z,33.52
2023-05-15T00:07:28.350Z,33.53
2023-05-15T00:09:47.673Z,33.58
2023-05-15T00:12:16.955Z,33.60
2023-05-15T00:14:36.576Z,33.62
2023-05-15T00:16:46.756Z,33.64
2023-05-15T00:18:59.716Z,33.64
2023-05-15T00:21:21.426Z,33.62
2023-05-15T00:23:49.445Z,33.56
2023-05-15T00:26:19.880Z,33.51
2023-05-15T00:28:29.556Z,33.45
2023-05-15T00:30:49.111Z,33.43
2023-05-15T00:33:08.781Z,33.45
2023-05-15T00:35:19.320Z,33.43
2023-05-15T00:37:29.028Z,33.38
2023-05-15T00:39:59.045Z,33.32
2023-05-15T00:42:12.103Z,33.32
2023-05-15T00:44:23.292Z,33.32
2023-05-15T00:46:53.611Z,33.30
2023-05-15T00:49:14.470Z,33.28
2023-05-15T00:51:35.402Z,33.26
2023-05-15T00:53:45.620Z,33.24
2023-05-15T00:56:07.596Z,33.26
2023-05-15T00:58:38.409Z,33.27
2023-05-15T01:01:01.408Z,33.33
2023-05-15T01:03:31.226Z,33.33
2023-05-15T01:05:51.932Z,33.29
2023-05-15T01:08:20.882Z,33.26
2023-05-15T01:10:53.278Z,33.24
2023-05-15T01:13:16.071Z,33.26
2023-05-15T01:15:46.076Z,33.28
2023-05-15T01:18:06.388Z,33.30
2023-05-15T01:20:58.131Z,33.29
2023-05-15T01:23:18.124Z,33.26
2023-05-15T01:26:22.487Z,33.20
2023-05-15T01:28:47.902Z,33.16
2023-05-15T01:31:01.460Z,33.14
2023-05-15T01:33:36.221Z,33.11
2023-05-15T01:36:14.916Z,33.08
2023-05-15T01:38:44.544Z,33.08
2023-05-15T01:41:17.679Z,33.04
2023-05-15T01:43:52.453Z,33.04
2023-05-15T01:46:02.842Z,32.97
2023-05-15T01:48:36.503Z,32.94
2023-05-15T01:51:09.709Z,32.89
2023-05-15T01:53:39.986Z,32.87
2023-05-15T01:55:50.521Z,32.84
2023-05-15T01:58:10.973Z,32.78
2023-05-15T02:00:40.910Z,32.74
2023-05-15T02:03:10.700Z,32.69
2023-05-15T02:05:24.675Z,32.68
2023-05-15T02:07:46.634Z,32.67
2023-05-15T02:09:58.855Z,32.65
2023-05-15T02:12:29.734Z,32.64
2023-05-15T02:14:39.416Z,32.60
2023-05-15T02:17:01.786Z,32.54
2023-05-15T02:19:31.814Z,32.48
2023-05-15T02:22:00.969Z,32.42
2023-05-15T02:24:21.545Z,32.40
2023-05-15T02:26:59.316Z,32.36
2023-05-15T02:29:28.520Z,32.30
2023-05-15T02:32:07.919Z,32.26
2023-05-15T02:34:36.649Z,32.22
2023-05-15T02:37:00.167Z,32.21
2023-05-15T02:39:23.730Z,32.18
2023-05-15T02:41:54.732Z,32.12
2023-05-15T02:44:19.457Z,32.06
2023-05-15T02:46:50.295Z,32.01
2023-05-15T02:49:12.257Z,32.01
2023-05-15T02:51:22.146Z,31.99
2023-05-15T02:53:44.992Z,31.97
2023-05-15T02:56:14.207Z,31.93
2023-05-15T02:58:27.028Z,31.90
2023-05-15T03:00:56.823Z,31.86
2023-05-15T03:03:18.077Z,31.81
2023-05-15T03:05:37.763Z,31.75
2023-05-15T03:08:00.387Z,31.71
2023-05-15T03:10:11.881Z,31.65
2023-05-15T03:12:29.191Z,31.57
2023-05-15T03:14:59.734Z,31.50
2023-05-15T03:17:13.109Z,31.46
2023-05-15T03:19:33.887Z,31.41
2023-05-15T03:22:05.812Z,31.37
2023-05-15T03:24:18.412Z,31.33
2023-05-15T03:26:48.012Z,31.28
2023-05-15T03:29:08.645Z,31.26
2023-05-15T03:31:21.485Z,31.21
2023-05-15T03:33:34.619Z,31.14
2023-05-15T03:35:53.986Z,31.04
2023-05-15T03:38:23.544Z,30.97
2023-05-15T03:40:44.136Z,30.92
2023-05-15T03:42:56.613Z,30.88
2023-05-15T03:45:26.308Z,30.81
2023-05-15T03:47:46.886Z,30.73
2023-05-15T03:50:16.553Z,30.67
2023-05-15T03:52:28.876Z,30.60
2023-05-15T03:54:51.835Z,30.55
2023-05-15T03:57:21.152Z,30.52
2023-05-15T03:59:40.493Z,30.48
2023-05-15T04:02:10.338Z,30.43
2023-05-15T04:04:22.851Z,30.40
2023-05-15T04:06:35.774Z,30.36
2023-05-15T04:08:48.795Z,30.34
2023-05-15T04:11:18.554Z,30.29
2023-05-15T04:13:27.740Z,30.24
2023-05-15T04:15:47.186Z,30.16
2023-05-15T04:18:16.356Z,30.10
2023-05-15T04:20:45.535Z,30.03
2023-05-15T04:22:57.832Z,29.97
2023-05-15T04:25:12.126Z,29.91
2023-05-15T04:27:40.573Z,29.84
2023-05-15T04:29:55.497Z,29.76
2023-05-15T04:32:15.055Z,29.69
2023-05-15T04:34:44.325Z,29.60
2023-05-15T04:36:56.928Z,29.54
2023-05-15T04:39:26.200Z,29.44
2023-05-15T04:41:45.404Z,29.37
2023-05-15T04:44:13.476Z,29.29
2023-05-15T04:46:43.029Z,29.23
2023-05-15T04:49:12.294Z,29.16
2023-05-15T04:51:32.348Z,29.11
2023-05-15T04:53:53.238Z,29.04
2023-05-15T04:56:02.468Z,29.02
2023-05-15T04:58:31.949Z,28.96
2023-05-15T05:01:03.691Z,28.90
2023-05-15T05:03:16.129Z,28.84
2023-05-15T05:05:45.449Z,28.78
2023-05-15T05:08:14.846Z,28.71
2023-05-15T05:10:41.204Z,28.66
2023-05-15T05:13:10.725Z,28.60
2023-05-15T05:15:20.111Z,28.53
2023-05-15T05:17:42.683Z,28.44
2023-05-15T05:19:55.095Z,28.36
2023-05-15T05:22:08.405Z,28.30
2023-05-15T05:24:38.407Z,28.23
2023-05-15T05:27:00.635Z,28.16
2023-05-15T05:29:20.896Z,28.09
2023-05-15T05:31:30.360Z,28.02
2023-05-15T05:33:49.865Z,27.98
2023-05-15T05:36:19.140Z,27.93
2023-05-15T05:38:48.561Z,27.88
2023-05-15T05:40:57.828Z,27.83
2023-05-15T05:43:07.893Z,27.80
2023-05-15T05:45:29.726Z,27.74
2023-05-15T05:47:59.021Z,27.71
2023-05-15T05:50:28.475Z,27.66
2023-05-15T05:52:57.858Z,27.56
2023-05-15T05:55:07.619Z,27.54
2023-05-15T05:57:17.031Z,27.49
2023-05-15T05:59:26.464Z,27.44
2023-05-15T06:01:36.177Z,27.40
2023-05-15T06:03:46.261Z,27.36
2023-05-15T06:05:55.533Z,27.32
2023-05-15T06:08:05.012Z,27.28
2023-05-15T06:10:14.660Z,27.22
2023-05-15T06:12:23.904Z,27.15
2023-05-15T06:14:33.771Z,27.08
2023-05-15T06:16:44.272Z,27.01
2023-05-15T06:18:54.598Z,26.96
2023-05-15T06:21:03.892Z,26.89
2023-05-15T06:23:13.550Z,26.83
2023-05-15T06:25:22.772Z,26.78
2023-05-15T06:27:31.779Z,26.71
2023-05-15T06:29:41.041Z,26.66
2023-05-15T06:31:50.423Z,26.61
2023-05-15T06:33:59.425Z,26.56
2023-05-15T06:36:09.771Z,26.52
2023-05-15T06:38:18.908Z,26.47
2023-05-15T06:40:28.520Z,26.42
2023-05-15T06:42:37.987Z,26.38
2023-05-15T06:44:47.783Z,26.32
2023-05-15T06:46:56.936Z,26.27
2023-05-15T06:49:06.617Z,26.18
2023-05-15T06:51:16.252Z,26.09
2023-05-15T06:53:25.338Z,26.01
2023-05-15T06:55:36.743Z,25.94
2023-05-15T06:57:45.876Z,25.88
2023-05-15T06:59:55.278Z,25.84
2023-05-15T07:02:04.499Z,25.76
2023-05-15T07:04:13.948Z,25.69
2023-05-15T07:06:23.661Z,25.65
2023-05-15T07:08:32.678Z,25.57
2023-05-15T07:10:42.148Z,25.50
2023-05-15T07:12:51.222Z,25.42
2023-05-15T07:15:00.398Z,25.36
2023-05-15T07:17:10.112Z,25.30
2023-05-15T07:19:21.891Z,25.25
2023-05-15T07:21:28.898Z,25.21
2023-05-15T07:23:38.881Z,25.17
2023-05-15T07:25:48.110Z,25.12
2023-05-15T07:27:57.130Z,25.07
2023-05-15T07:30:07.540Z,25.05
2023-05-15T07:32:16.627Z,25.00
2023-05-15T07:34:25.959Z,24.94
2023-05-15T07:36:35.743Z,24.88
2023-05-15T07:38:45.326Z,24.83
2023-05-15T07:40:54.599Z,24.78
2023-05-15T07:43:03.994Z,24.73
2023-05-15T07:45:14.349Z,24.66
2023-05-15T07:47:23.462Z,24.60
2023-05-15T07:49:33.264Z,24.57
2023-05-15T07:51:43.002Z,24.55
2023-05-15T07:53:52.201Z,24.56
2023-05-15T07:56:01.369Z,24.54
2023-05-15T07:58:11.131Z,24.49
2023-05-15T08:00:22.564Z,24.41
2023-05-15T08:02:32.724Z,24.35
2023-05-15T08:04:41.917Z,24.27
2023-05-15T08:06:51.043Z,24.21
2023-05-15T08:09:00.076Z,24.15
2023-05-15T08:11:09.618Z,24.13
2023-05-15T08:13:19.447Z,24.10
2023-05-15T08:15:29.631Z,24.06
2023-05-15T08:17:39.367Z,24.01
2023-05-15T08:19:49.066Z,23.95
2023-05-15T08:21:58.740Z,23.87
2023-05-15T08:24:09.253Z,23.78
2023-05-15T08:26:18.760Z,23.71
2023-05-15T08:28:28.568Z,23.64
2023-05-15T08:30:37.999Z,23.59
2023-05-15T08:32:47.656Z,23.53
2023-05-15T08:34:57.199Z,23.47
2023-05-15T08:37:07.545Z,23.43
2023-05-15T08:39:16.608Z,23.41
2023-05-15T08:41:40.365Z,23.39
2023-05-15T08:43:51.998Z,23.36
2023-05-15T08:46:02.236Z,23.36
2023-05-15T08:48:16.550Z,23.35
2023-05-15T08:50:27.902Z,23.35
2023-05-15T08:52:37.790Z,23.33
2023-05-15T08:54:48.544Z,23.31
2023-05-15T08:56:57.818Z,23.28
2023-05-15T08:59:07.882Z,23.26
2023-05-15T09:01:18.331Z,23.23
2023-05-15T09:03:27.824Z,23.19
2023-05-15T09:05:38.179Z,23.16
2023-05-15T09:07:50.965Z,23.15
2023-05-15T09:10:01.468Z,23.13
2023-05-15T09:12:16.046Z,23.10
2023-05-15T09:14:25.123Z,23.06
2023-05-15T09:16:34.181Z,23.04
2023-05-15T09:18:45.661Z,22.98
2023-05-15T09:20:56.365Z,22.90
2023-05-15T09:23:06.573Z,22.83
2023-05-15T09:25:33.535Z,22.77
2023-05-15T09:27:47.542Z,22.71
2023-05-15T09:29:58.237Z,22.61
2023-05-15T09:32:12.676Z,22.50
2023-05-15T09:34:30.315Z,22.41
2023-05-15T09:36:43.959Z,22.34
2023-05-15T09:38:59.682Z,22.31
2023-05-15T09:41:10.504Z,22.29
2023-05-15T09:43:19.653Z,22.29
2023-05-15T09:45:30.473Z,22.31
2023-05-15T09:47:40.717Z,22.31
2023-05-15T09:49:50.117Z,22.29
2023-05-15T09:52:02.076Z,22.25
2023-05-15T09:54:18.938Z,22.24
2023-05-15T09:56:28.408Z,22.25
2023-05-15T09:58:39.043Z,22.25
2023-05-15T10:04:05.704Z,22.22
2023-05-15T10:06:42.827Z,22.16
2023-05-15T10:09:13.337Z,22.14
2023-05-15T10:11:44.827Z,22.13
2023-05-15T10:14:07.907Z,22.12
2023-05-15T10:16:20.644Z,22.10
2023-05-15T10:18:53.229Z,22.06
2023-05-15T10:21:04.703Z,22.02
2023-05-15T10:23:33.321Z,21.97
2023-05-15T10:26:05.920Z,21.91
2023-05-15T10:28:37.110Z,21.81
2023-05-15T10:31:07.634Z,21.79
2023-05-15T10:33:37.750Z,21.76
2023-05-15T10:35:58.001Z,21.73
2023-05-15T10:38:18.947Z,21.70
2023-05-15T10:40:49.117Z,21.67
2023-05-15T10:43:01.726Z,21.64
2023-05-15T10:45:22.339Z,21.61
2023-05-15T10:47:36.303Z,21.59
2023-05-15T10:49:49.408Z,21.60
2023-05-15T10:52:10.862Z,21.62
2023-05-15T10:54:40.962Z,21.66
2023-05-15T10:57:10.961Z,21.68
2023-05-15T10:59:41.787Z,21.69
2023-05-15T11:02:27.734Z,21.69
2023-05-15T11:04:41.590Z,21.65
2023-05-15T11:07:18.383Z,21.63
2023-05-15T11:09:43.120Z,21.60
2023-05-15T11:12:03.761Z,21.53
2023-05-15T11:14:19.194Z,21.48
2023-05-15T11:17:01.258Z,21.41
2023-05-15T11:19:33.353Z,21.34
2023-05-15T11:22:01.255Z,21.28
2023-05-15T11:24:21.687Z,21.20
2023-05-15T11:26:59.882Z,21.15
2023-05-15T11:29:26.980Z,21.08
2023-05-15T11:31:40.990Z,21.03
2023-05-15T11:34:10.849Z,20.97
2023-05-15T11:36:35.762Z,20.94
2023-05-15T11:38:52.128Z,20.91
2023-05-15T11:41:30.311Z,20.88
2023-05-15T11:44:01.261Z,20.85
2023-05-15T11:46:32.255Z,20.85
2023-05-15T11:48:44.378Z,20.84
2023-05-15T11:51:21.727Z,20.82
2023-05-15T11:53:53.156Z,20.81
2023-05-15T11:56:09.235Z,20.80
2023-05-15T11:58:41.552Z,20.81
2023-05-15T12:00:55.268Z,20.80
2023-05-15T12:03:20.811Z,20.79
2023-05-15T12:05:59.166Z,20.76
2023-05-15T12:08:33.604Z,20.75
2023-05-15T12:11:04.392Z,20.74
2023-05-15T12:13:34.778Z,20.73
2023-05-15T12:15:58.336Z,20.72
2023-05-15T12:18:08.942Z,20.72
2023-05-15T12:20:39.659Z,20.70
2023-05-15T12:22:52.686Z,20.69
2023-05-15T12:25:03.915Z,20.68
2023-05-15T12:27:21.736Z,20.68
2023-05-15T12:29:43.893Z,20.66
2023-05-15T12:32:03.355Z,20.64
2023-05-15T12:34:16.125Z,20.63
2023-05-15T12:36:25.877Z,20.62
2023-05-15T12:38:44.828Z,20.59
2023-05-15T12:41:05.179Z,20.57
2023-05-15T12:43:15.241Z,20.55
2023-05-15T12:45:35.807Z,20.53
2023-05-15T12:48:05.627Z,20.53
2023-05-15T12:50:30.955Z,20.51
2023-05-15T12:53:02.632Z,20.54
2023-05-15T12:55:10.973Z,20.56
2023-05-15T12:57:23.073Z,20.56
2023-05-15T12:59:52.877Z,20.56
2023-05-15T13:02:05.818Z,20.55
2023-05-15T13:04:20.196Z,20.57
2023-05-15T13:06:42.400Z,20.58
2023-05-15T13:09:15.185Z,20.61
2023-05-15T13:11:31.745Z,20.63
2023-05-15T13:13:49.226Z,20.66
2023-05-15T13:16:26.192Z,20.70
2023-05-15T13:18:44.480Z,20.74
2023-05-15T13:21:13.725Z,20.78
2023-05-15T13:23:25.181Z,20.81
2023-05-15T13:25:54.550Z,20.86
2023-05-15T13:28:08.195Z,20.90
2023-05-15T13:30:42.003Z,20.94
2023-05-15T13:33:49.746Z,20.97
2023-05-15T13:35:57.598Z,21.00
2023-05-15T13:38:10.378Z,21.02
2023-05-15T13:40:40.868Z,21.05
2023-05-15T13:42:58.896Z,21.09
2023-05-15T13:45:13.144Z,21.12
2023-05-15T13:47:31.258Z,21.13
2023-05-15T13:49:50.970Z,21.14
2023-05-15T13:52:03.757Z,21.16
2023-05-15T13:54:33.458Z,21.17
2023-05-15T13:56:53.671Z,21.19
2023-05-15T13:59:23.296Z,21.19
2023-05-15T14:01:43.817Z,21.23
2023-05-15T14:04:13.330Z,21.27
2023-05-15T14:06:34.014Z,21.30
2023-05-15T14:09:03.206Z,21.33
2023-05-15T14:11:25.483Z,21.36
2023-05-15T14:13:48.837Z,21.36
2023-05-15T14:16:09.079Z,21.42
2023-05-15T14:18:21.813Z,21.47
2023-05-15T14:20:51.384Z,21.54
2023-05-15T14:23:21.121Z,21.63
2023-05-15T14:25:40.932Z,21.75
2023-05-15T14:28:00.194Z,21.84
2023-05-15T14:30:30.108Z,21.93
2023-05-15T14:32:49.861Z,21.96
2023-05-15T14:35:12.724Z,21.94
2023-05-15T14:37:43.520Z,21.92
2023-05-15T14:40:03.789Z,21.86
2023-05-15T14:42:26.304Z,21.82
2023-05-15T14:44:55.708Z,21.79
2023-05-15T14:47:18.137Z,21.78
2023-05-15T14:49:38.035Z,21.79
2023-05-15T14:51:57.357Z,21.82
2023-05-15T14:54:16.738Z,21.84
2023-05-15T14:56:31.964Z,21.85
2023-05-15T14:59:01.354Z,21.90
2023-05-15T15:01:30.729Z,21.90
2023-05-15T15:03:43.968Z,21.90
2023-05-15T15:06:02.854Z,21.91
2023-05-15T15:08:31.053Z,21.92
2023-05-15T15:10:49.535Z,21.92
2023-05-15T15:13:10.953Z,21.92
2023-05-15T15:15:30.506Z,21.90
2023-05-15T15:17:50.167Z,21.92
2023-05-15T15:20:22.113Z,21.93
2023-05-15T15:22:44.311Z,21.92
2023-05-15T15:25:04.438Z,21.92
2023-05-15T15:27:35.552Z,21.91
2023-05-15T15:29:47.780Z,21.92
2023-05-15T15:32:09.060Z,21.93
2023-05-15T15:34:22.521Z,21.94
2023-05-15T15:36:37.824Z,21.95
2023-05-15T15:38:50.522Z,21.98
2023-05-15T15:41:03.859Z,22.01
2023-05-15T15:43:23.351Z,22.03
2023-05-15T15:45:44.082Z,22.07
2023-05-15T15:48:08.567Z,22.11
2023-05-15T15:50:37.818Z,22.15
2023-05-15T15:52:47.175Z,22.18
2023-05-15T15:54:56.633Z,22.23
2023-05-15T15:57:26.484Z,22.27
2023-05-15T15:59:46.382Z,22.30
2023-05-15T16:01:59.474Z,22.34
2023-05-15T16:04:18.190Z,22.37
2023-05-15T16:06:28.708Z,22.40
2023-05-15T16:08:58.343Z,22.39
2023-05-15T16:11:27.690Z,22.37
2023-05-15T16:13:41.156Z,22.35
2023-05-15T16:16:05.039Z,22.34
2023-05-15T16:18:34.622Z,22.32
2023-05-15T16:21:04.230Z,22.31
2023-05-15T16:23:17.030Z,22.30
2023-05-15T16:25:47.265Z,22.33
2023-05-15T16:28:10.143Z,22.39
2023-05-15T16:30:48.804Z,22.51
2023-05-15T16:33:13.069Z,22.65
2023-05-15T16:35:25.857Z,22.73
2023-05-15T16:37:39.252Z,22.83
2023-05-15T16:39:49.096Z,22.95
2023-05-15T16:42:18.350Z,23.18
2023-05-15T16:44:48.168Z,23.40
2023-05-15T16:47:17.886Z,23.58
2023-05-15T16:49:49.789Z,23.78
2023-05-15T16:51:59.619Z,24.00
2023-05-15T16:54:29.792Z,24.26
2023-05-15T16:56:59.227Z,24.50
2023-05-15T16:59:28.466Z,24.72
2023-05-15T17:01:47.794Z,24.94
2023-05-15T17:04:17.345Z,25.20
2023-05-15T17:06:46.605Z,25.43
2023-05-15T17:09:09.588Z,25.71
2023-05-15T17:11:18.828Z,26.00
2023-05-15T17:13:38.494Z,26.31
2023-05-15T17:15:59.054Z,26.55
2023-05-15T17:18:18.610Z,26.84
2023-05-15T17:20:37.874Z,27.12
2023-05-15T17:22:57.434Z,27.37
2023-05-15T17:25:18.080Z,27.62
2023-05-15T17:27:41.663Z,27.88
2023-05-15T17:30:13.708Z,28.11
2023-05-15T17:32:43.310Z,28.27
2023-05-15T17:35:13.452Z,28.46
2023-05-15T17:37:43.062Z,28.68
2023-05-15T17:40:15.401Z,28.86
2023-05-15T17:42:33.682Z,28.96
2023-05-15T17:44:57.530Z,29.05
2023-05-15T17:47:16.317Z,29.16
2023-05-15T17:49:45.628Z,29.30
2023-05-15T17:52:15.190Z,29.39
2023-05-15T17:54:44.960Z,29.51
2023-05-15T17:57:14.296Z,29.67
2023-05-15T17:59:27.078Z,29.84
2023-05-15T18:01:46.588Z,29.98
2023-05-15T18:04:16.255Z,30.12
2023-05-15T18:06:28.786Z,30.24
2023-05-15T18:08:58.257Z,30.42
2023-05-15T18:11:28.155Z,30.56
2023-05-15T18:13:57.659Z,30.53
2023-05-15T18:16:27.528Z,30.54
2023-05-15T18:18:48.930Z,30.60
2023-05-15T18:21:18.175Z,30.59
2023-05-15T18:23:48.033Z,30.63
2023-05-15T18:26:17.850Z,30.72
2023-05-15T18:28:47.493Z,30.70
2023-05-15T18:31:17.215Z,30.73
2023-05-15T18:33:47.129Z,30.81
2023-05-15T18:36:07.459Z,30.90
2023-05-15T18:38:36.920Z,30.99
2023-05-15T18:41:06.248Z,31.12
2023-05-15T18:43:35.963Z,31.16
2023-05-15T18:46:05.447Z,31.25
2023-05-15T18:48:34.724Z,31.32
2023-05-15T18:50:48.467Z,31.39
2023-05-15T18:53:10.981Z,31.47
2023-05-15T18:55:40.822Z,31.54
2023-05-15T18:58:10.681Z,31.64
2023-05-15T19:00:40.009Z,31.79
2023-05-15T19:03:10.275Z,31.90
2023-05-15T19:05:20.273Z,32.03
2023-05-15T19:07:49.837Z,32.15
2023-05-15T19:10:01.980Z,32.26
2023-05-15T19:12:31.622Z,32.38
2023-05-15T19:14:41.493Z,32.48
2023-05-15T19:17:10.931Z,32.53
2023-05-15T19:19:25.754Z,32.55
2023-05-15T19:21:55.415Z,32.59
2023-05-15T19:24:15.726Z,32.70
2023-05-15T19:26:45.005Z,32.82
2023-05-15T19:29:05.338Z,32.93
2023-05-15T19:31:34.835Z,33.03
2023-05-15T19:33:54.537Z,33.11
2023-05-15T19:36:23.745Z,33.19
2023-05-15T19:38:52.999Z,33.26
2023-05-15T19:41:13.881Z,33.29
2023-05-15T19:43:46.637Z,33.30
2023-05-15T19:46:07.400Z,33.39
2023-05-15T19:48:36.713Z,33.45
2023-05-15T19:51:05.939Z,33.48
2023-05-15T19:53:35.243Z,33.56
2023-05-15T19:56:05.362Z,33.60
2023-05-15T19:58:35.307Z,33.65
2023-05-15T20:01:04.851Z,33.73
2023-05-15T20:03:34.355Z,33.82
2023-05-15T20:06:05.154Z,33.92
2023-05-15T20:08:27.835Z,34.05
2023-05-15T20:10:57.528Z,34.15
2023-05-15T20:13:27.052Z,34.12
2023-05-15T20:15:59.374Z,34.14
2023-05-15T20:18:09.272Z,34.19
2023-05-15T20:20:29.288Z,34.26
2023-05-15T20:22:42.815Z,34.30
2023-05-15T20:24:52.490Z,34.34
2023-05-15T20:27:21.795Z,34.43
2023-05-15T20:29:51.375Z,34.52
2023-05-15T20:32:20.757Z,34.61
2023-05-15T20:34:42.680Z,34.61
2023-05-15T20:37:03.847Z,34.65
2023-05-15T20:39:24.627Z,34.71
2023-05-15T20:41:37.668Z,34.77
2023-05-15T20:44:07.255Z,34.75
2023-05-15T20:46:30.200Z,34.81
2023-05-15T20:48:43.220Z,34.85
2023-05-15T20:51:05.634Z,34.87
2023-05-15T20:53:34.973Z,34.94
2023-05-15T20:56:04.643Z,35.02
2023-05-15T20:58:34.066Z,35.10
2023-05-15T21:00:54.490Z,35.21
2023-05-15T21:03:07.228Z,35.21
2023-05-15T21:05:19.765Z,35.09
2023-05-15T21:07:49.149Z,34.97
2023-05-15T21:10:10.880Z,34.87
2023-05-15T21:12:30.416Z,34.80
2023-05-15T21:14:59.938Z,34.83
2023-05-15T21:17:09.701Z,34.93
2023-05-15T21:19:29.723Z,35.03
2023-05-15T21:21:41.681Z,35.01
2023-05-15T21:24:11.446Z,34.97
2023-05-15T21:26:20.726Z,34.99
2023-05-15T21:28:40.101Z,34.96
2023-05-15T21:31:12.953Z,34.92
2023-05-15T21:33:27.914Z,34.95
2023-05-15T21:35:47.833Z,35.05
2023-05-15T21:38:17.539Z,35.19
2023-05-15T21:40:46.852Z,35.33
2023-05-15T21:43:07.214Z,35.37
2023-05-15T21:45:36.754Z,35.38
2023-05-15T21:47:56.017Z,35.37
2023-05-15T21:50:27.121Z,35.28
2023-05-15T21:52:50.592Z,35.19
2023-05-15T21:55:11.652Z,35.11
2023-05-15T21:57:40.920Z,35.00
2023-05-15T22:00:12.309Z,34.91
2023-05-15T22:02:33.718Z,34.92
2023-05-15T22:04:54.164Z,34.97
2023-05-15T22:07:23.422Z,35.08
2023-05-15T22:09:53.461Z,35.22
2023-05-15T22:12:13.193Z,35.23
2023-05-15T22:14:25.763Z,35.21
2023-05-15T22:16:38.567Z,35.23
2023-05-15T22:18:47.966Z,35.23
2023-05-15T22:21:01.989Z,35.20
2023-05-15T22:23:11.282Z,35.17
2023-05-15T22:25:31.923Z,35.14
2023-05-15T22:28:01.424Z,35.02
2023-05-15T22:30:12.659Z,34.91
2023-05-15T22:32:39.945Z,34.84
2023-05-15T22:35:11.250Z,34.73
2023-05-15T22:37:33.392Z,34.74
2023-05-15T22:39:52.830Z,34.76
2023-05-15T22:42:22.567Z,34.70
2023-05-15T22:44:44.499Z,34.57
2023-05-15T22:47:13.846Z,34.32
2023-05-15T22:49:43.213Z,34.20
2023-05-15T22:52:13.963Z,34.12
2023-05-15T22:54:36.505Z,34.09
2023-05-15T22:56:57.346Z,34.09
2023-05-15T22:59:26.708Z,34.09
2023-05-15T23:01:55.963Z,34.05
2023-05-15T23:04:25.733Z,34.02
2023-05-15T23:07:04.919Z,33.98
2023-05-15T23:09:34.348Z,33.92
2023-05-15T23:12:05.137Z,33.83
2023-05-15T23:14:35.810Z,33.74
2023-05-15T23:17:05.505Z,33.66
2023-05-15T23:19:35.377Z,33.60
2023-05-15T23:22:04.780Z,33.51
2023-05-15T23:24:34.616Z,33.44
2023-05-15T23:27:04.922Z,33.36
2023-05-15T23:29:35.084Z,33.29
2023-05-15T23:31:47.769Z,33.20
2023-05-15T23:34:16.584Z,33.15
2023-05-15T23:36:36.235Z,33.09
2023-05-15T23:38:45.885Z,33.03
2023-05-15T23:41:15.134Z,32.97
2023-05-15T23:43:44.482Z,32.91
2023-05-15T23:46:13.712Z,32.80
2023-05-15T23:48:26.635Z,32.71
2023-05-15T23:50:56.081Z,32.61
2023-05-15T23:53:25.586Z,32.52
2023-05-15T23:55:41.689Z,32.45
2023-05-15T23:58:10.932Z,32.36
